Time;durP1;ratioP1;P1;durP2;ratioP2;P2;SDS_P1;SDS_P2;PMS_P1;PMS_P2;Temp;Humidity;BMP_temperature;BMP_pressure;BME280_temperature;BME280_humidity;BME280_pressure;Samples;Min_cycle;Max_cycle;Signal;HPM_P1;HPM_P2
2022/04/04 00:01:34;;;;;;;12;16.8;;;;;;;-0.6;70.5;98790;;;;
2022/04/04 00:11:34;;;;;;;12;16.8;;;;;;;-0.7;70.7;98780;;;;
2022/04/04 00:21:36;;;;;;;12.6;17.8;;;;;;;-0.7;70.7;98780;;;;
2022/04/04 00:31:34;;;;;;;12.6;17.8;;;;;;;-0.7;70.4;98780;;;;
2022/04/04 00:42:34;;;;;;;12.6;17.8;;;;;;;-0.7;70.1;98770;;;;
2022/04/04 00:52:34;;;;;;;11.6;16.6;;;;;;;-0.7;69.8;98770;;;;
2022/04/04 01:02:34;;;;;;;11.6;16.6;;;;;;;-0.7;69.8;98760;;;;
2022/04/04 01:13:34;;;;;;;11.6;16.6;;;;;;;-0.7;69.8;98750;;;;
2022/04/04 01:23:34;;;;;;;11.6;20.2;;;;;;;-0.7;69.6;98760;;;;
2022/04/04 01:33:34;;;;;;;11.6;20.2;;;;;;;-0.7;70;98750;;;;
2022/04/04 01:44:34;;;;;;;11.6;20.2;;;;;;;-0.8;70.2;98740;;;;
2022/04/04 01:55:34;;;;;;;10.3;18;;;;;;;-0.9;70.6;98730;;;;
2022/04/04 02:06:35;;;;;;;10.3;18;;;;;;;-0.9;70.4;98730;;;;
2022/04/04 02:16:35;;;;;;;10.3;18;;;;;;;-0.9;70.2;98720;;;;
2022/04/04 02:27:34;;;;;;;8.9;14.2;;;;;;;-1;70.3;98700;;;;
2022/04/04 02:38:34;;;;;;;8.9;14.2;;;;;;;-1;69.3;98690;;;;
2022/04/04 02:49:34;;;;;;;8.5;13.2;;;;;;;-1;68.9;98700;;;;
2022/04/04 03:00:34;;;;;;;8.5;13.2;;;;;;;-1.1;68.6;98700;;;;
2022/04/04 03:10:35;;;;;;;8.5;13.2;;;;;;;-1.1;68.3;98700;;;;
2022/04/04 03:21:34;;;;;;;7.9;12.4;;;;;;;-1.1;68.4;98700;;;;
2022/04/04 03:32:34;;;;;;;7.9;12.4;;;;;;;-1.1;68.1;98700;;;;
2022/04/04 03:42:37;;;;;;;7.9;12.4;;;;;;;-1.1;67.7;98700;;;;
2022/04/04 03:52:34;;;;;;;8.5;13.9;;;;;;;-1.2;67.3;98690;;;;
2022/04/04 04:02:35;;;;;;;8.5;13.9;;;;;;;-1.4;67.3;98690;;;;
2022/04/04 04:12:35;;;;;;;8.5;13.9;;;;;;;-1.6;67.8;98680;;;;
2022/04/04 04:23:34;;;;;;;6.4;12.8;;;;;;;-1.8;68;98690;;;;
2022/04/04 04:33:35;;;;;;;6.4;12.8;;;;;;;-1.9;68.2;98680;;;;
2022/04/04 04:44:34;;;;;;;6.4;12.8;;;;;;;-1.9;68.2;98690;;;;
2022/04/04 04:54:34;;;;;;;5.8;11.5;;;;;;;-1.9;68.2;98690;;;;
2022/04/04 05:04:34;;;;;;;5.8;11.5;;;;;;;-1.7;67.6;98690;;;;
2022/04/04 05:14:36;;;;;;;5.8;11.5;;;;;;;-1.4;66.5;98700;;;;
2022/04/04 05:24:35;;;;;;;4.9;9;;;;;;;-1.1;65.5;98700;;;;
2022/04/04 05:34:34;;;;;;;4.9;9;;;;;;;-0.9;64.6;98700;;;;
2022/04/04 05:44:35;;;;;;;4.9;9;;;;;;;-0.6;63.8;98700;;;;
2022/04/04 05:55:35;;;;;;;5.9;9.3;;;;;;;-0.3;63;98700;;;;
2022/04/04 06:05:35;;;;;;;5.9;9.3;;;;;;;0.3;61.7;98710;;;;
2022/04/04 06:16:34;;;;;;;5.9;9.3;;;;;;;0.6;61.1;98700;;;;
2022/04/04 06:26:35;;;;;;;6.5;10.7;;;;;;;0.7;60;98690;;;;
2022/04/04 06:37:34;;;;;;;6.5;10.7;;;;;;;1.1;59.6;98700;;;;
2022/04/04 06:48:35;;;;;;;7.1;9.7;;;;;;;1.6;58.8;98700;;;;
2022/04/04 06:59:34;;;;;;;7.1;9.7;;;;;;;1.4;58.6;98690;;;;
2022/04/04 07:09:35;;;;;;;7.1;9.7;;;;;;;1.3;59.5;98690;;;;
2022/04/04 07:19:35;;;;;;;7.8;10.5;;;;;;;1.5;58.7;98690;;;;
2022/04/04 07:30:35;;;;;;;7.8;10.5;;;;;;;1.8;59.2;98690;;;;
2022/04/04 07:40:35;;;;;;;7.8;10.5;;;;;;;2.3;57.2;98670;;;;
2022/04/04 07:50:36;;;;;;;8.7;11.4;;;;;;;2.9;57.4;98670;;;;
2022/04/04 08:01:35;;;;;;;8.7;11.4;;;;;;;2.8;56.7;98660;;;;
2022/04/04 08:12:35;;;;;;;8.7;11.4;;;;;;;2.9;56.5;98650;;;;
2022/04/04 08:22:35;;;;;;;8.7;11.8;;;;;;;3.1;56.4;98650;;;;
2022/04/04 08:33:37;;;;;;;8.7;11.8;;;;;;;4.1;56.5;98650;;;;
2022/04/04 08:44:36;;;;;;;8.7;11.8;;;;;;;5.1;53.9;98650;;;;
2022/04/04 08:54:35;;;;;;;8.8;11.2;;;;;;;5.4;52.5;98630;;;;
2022/04/04 09:05:35;;;;;;;8.8;11.2;;;;;;;5.8;51.9;98630;;;;
2022/04/04 09:15:35;;;;;;;8.8;11.2;;;;;;;6;52;98620;;;;
2022/04/04 09:26:35;;;;;;;8.2;10.5;;;;;;;5.6;52.5;98610;;;;
2022/04/04 09:36:35;;;;;;;8.2;10.5;;;;;;;5.8;52.7;98600;;;;
2022/04/04 09:47:35;;;;;;;8.2;10.5;;;;;;;6.4;51.7;98570;;;;
2022/04/04 09:57:35;;;;;;;8;10.6;;;;;;;6.1;52.8;98560;;;;
2022/04/04 10:08:35;;;;;;;8;10.6;;;;;;;5.8;52.6;98540;;;;
2022/04/04 10:18:35;;;;;;;6.9;9.3;;;;;;;5.8;52.7;98530;;;;
2022/04/04 10:29:35;;;;;;;6.9;9.3;;;;;;;6.6;52.4;98500;;;;
2022/04/04 10:39:35;;;;;;;6.9;9.3;;;;;;;6.8;50.4;98490;;;;
2022/04/04 10:50:35;;;;;;;6.4;10.7;;;;;;;6.6;50.6;98490;;;;
2022/04/04 11:01:35;;;;;;;6.4;10.7;;;;;;;7.2;50.4;98470;;;;
2022/04/04 11:11:35;;;;;;;6.4;10.7;;;;;;;7;50.1;98470;;;;
2022/04/04 11:21:35;;;;;;;7.3;9.5;;;;;;;7.2;50.9;98450;;;;
2022/04/04 11:32:38;;;;;;;7.3;9.5;;;;;;;7.3;49.4;98440;;;;
2022/04/04 11:43:35;;;;;;;7.3;9.5;;;;;;;7;49.3;98420;;;;
2022/04/04 11:53:38;;;;;;;7.8;12.1;;;;;;;7.4;49.8;98400;;;;
2022/04/04 12:03:43;;;;;;;7.8;12.1;;;;;;;7.1;48.6;98400;;;;
2022/04/04 12:14:36;;;;;;;7.8;12.1;;;;;;;6.9;48.9;98370;;;;
2022/04/04 12:25:35;;;;;;;6.8;9.7;;;;;;;7;48.7;98350;;;;
2022/04/04 12:35:35;;;;;;;6.8;9.7;;;;;;;6.9;50.6;98330;;;;
2022/04/04 12:52:11;;;;;;;7.1;9.1;;;;;;;7.5;49.6;98310;;;;
2022/04/04 13:02:10;;;;;;;7.1;9.1;;;;;;;7.2;49.1;98290;;;;
2022/04/04 13:13:10;;;;;;;7.1;9.1;;;;;;;7.4;48.2;98290;;;;
2022/04/04 13:24:10;;;;;;;5.6;7.7;;;;;;;7.3;48.4;98260;;;;
2022/04/04 13:35:10;;;;;;;5.6;7.7;;;;;;;7.5;48.3;98240;;;;
2022/04/04 13:46:10;;;;;;;5.6;7.7;;;;;;;6.8;46.7;98220;;;;
2022/04/04 13:57:10;;;;;;;5.2;8.2;;;;;;;6.6;47.1;98200;;;;
2022/04/04 14:07:10;;;;;;;5.2;8.2;;;;;;;7.3;45.6;98190;;;;
2022/04/04 14:18:10;;;;;;;5.3;7.6;;;;;;;6.8;44.2;98160;;;;
2022/04/04 14:28:10;;;;;;;5.3;7.6;;;;;;;7.3;44;98150;;;;
2022/04/04 14:38:10;;;;;;;5.3;7.6;;;;;;;7.1;45.3;98130;;;;
2022/04/04 14:49:10;;;;;;;4.7;7.1;;;;;;;7;42.9;98110;;;;
2022/04/04 15:00:12;;;;;;;4.7;7.1;;;;;;;7.2;44.3;98090;;;;
2022/04/04 15:11:11;;;;;;;4.7;7.1;;;;;;;6.6;43.7;98060;;;;
2022/04/04 15:21:10;;;;;;;5.7;9.5;;;;;;;8.2;39.7;98040;;;;
2022/04/04 15:32:10;;;;;;;5.7;9.5;;;;;;;9.5;37.4;98020;;;;
2022/04/04 15:43:11;;;;;;;5.7;9.5;;;;;;;10.7;35.8;97990;;;;
2022/04/04 15:54:10;;;;;;;5.3;8.2;;;;;;;10.2;39.9;97980;;;;
2022/04/04 16:04:10;;;;;;;5.3;8.2;;;;;;;10.7;36.8;97960;;;;
2022/04/04 16:15:10;;;;;;;5.3;8.2;;;;;;;9.9;39;97940;;;;
2022/04/04 16:25:10;;;;;;;5.1;7.8;;;;;;;9;40.1;97920;;;;
2022/04/04 16:36:10;;;;;;;5.1;7.8;;;;;;;8.5;40.6;97900;;;;
2022/04/04 16:47:10;;;;;;;6.3;8.6;;;;;;;6.7;45.9;97870;;;;
2022/04/04 16:57:10;;;;;;;6.3;8.6;;;;;;;5.7;48.3;97850;;;;
2022/04/04 17:08:10;;;;;;;6.3;8.6;;;;;;;4.7;50.9;97830;;;;
2022/04/04 17:18:11;;;;;;;7.6;9.9;;;;;;;4.3;52.6;97810;;;;
2022/04/04 17:29:10;;;;;;;7.6;9.9;;;;;;;3.8;53.1;97800;;;;
2022/04/04 17:39:10;;;;;;;7.6;9.9;;;;;;;3.4;54.8;97780;;;;
2022/04/04 17:50:10;;;;;;;8.9;13;;;;;;;3.1;55;97770;;;;
2022/04/04 18:00:11;;;;;;;8.9;13;;;;;;;3;55.3;97760;;;;
2022/04/04 18:11:10;;;;;;;8.9;13;;;;;;;2.9;55.2;97750;;;;
2022/04/04 18:21:10;;;;;;;10.3;18.3;;;;;;;2.7;56.2;97750;;;;
2022/04/04 18:32:10;;;;;;;10.3;18.3;;;;;;;2.5;56.6;97730;;;;
2022/04/04 18:42:10;;;;;;;10.3;18.3;;;;;;;2.4;56.9;97720;;;;
2022/04/04 18:53:11;;;;;;;10.5;15.7;;;;;;;2.5;56.3;97710;;;;
2022/04/04 19:03:10;;;;;;;10.5;15.7;;;;;;;2.4;56.6;97700;;;;
2022/04/04 19:14:10;;;;;;;10.5;15.7;;;;;;;2.5;56.4;97690;;;;
2022/04/04 19:25:10;;;;;;;8.1;12.1;;;;;;;2.9;55.8;97680;;;;
2022/04/04 19:35:10;;;;;;;8.1;12.1;;;;;;;3;55.9;97670;;;;
2022/04/04 19:45:11;;;;;;;8.1;12.1;;;;;;;3.2;55.6;97660;;;;
2022/04/04 19:55:10;;;;;;;9.6;13.1;;;;;;;3.3;56.1;97650;;;;
2022/04/04 20:05:11;;;;;;;9.6;13.1;;;;;;;3.4;56.8;97630;;;;
2022/04/04 20:16:10;;;;;;;8.6;12.6;;;;;;;3.7;56.5;97620;;;;
2022/04/04 20:26:10;;;;;;;8.6;12.6;;;;;;;3.8;56.6;97610;;;;
2022/04/04 20:37:10;;;;;;;8.6;12.6;;;;;;;4;56.7;97590;;;;
2022/04/04 20:47:10;;;;;;;8.6;11.7;;;;;;;4;57.4;97580;;;;
2022/04/04 20:57:10;;;;;;;8.6;11.7;;;;;;;4.2;57.8;97580;;;;
2022/04/04 21:08:12;;;;;;;8.6;11.7;;;;;;;4.3;57.8;97570;;;;
2022/04/04 21:18:10;;;;;;;9.8;12.5;;;;;;;4.4;58;97550;;;;
2022/04/04 21:29:11;;;;;;;9.8;12.5;;;;;;;4.5;58.7;97550;;;;
2022/04/04 21:39:10;;;;;;;9.8;12.5;;;;;;;4.6;58.9;97540;;;;
2022/04/04 21:50:10;;;;;;;10;12.9;;;;;;;4.5;59.9;97530;;;;
2022/04/04 22:01:10;;;;;;;10;12.9;;;;;;;4.6;60.8;97530;;;;
2022/04/04 22:11:10;;;;;;;10;12.9;;;;;;;4.4;61.5;97510;;;;
2022/04/04 22:21:10;;;;;;;10.1;14.3;;;;;;;4.2;62.3;97490;;;;
2022/04/04 22:32:12;;;;;;;10.1;14.3;;;;;;;4;63.3;97480;;;;
2022/04/04 22:43:10;;;;;;;10.1;14.3;;;;;;;3.9;63.8;97470;;;;
2022/04/04 22:54:10;;;;;;;9.9;12.6;;;;;;;3.8;64.2;97460;;;;
2022/04/04 23:04:10;;;;;;;9.9;12.6;;;;;;;3.8;64.6;97460;;;;
2022/04/04 23:15:10;;;;;;;9.9;12.6;;;;;;;3.8;64.3;97450;;;;
2022/04/04 23:26:10;;;;;;;10.2;13.1;;;;;;;3.9;63.7;97450;;;;
2022/04/04 23:36:10;;;;;;;10.2;13.1;;;;;;;4.1;63.2;97440;;;;
2022/04/04 23:47:10;;;;;;;9.6;12.2;;;;;;;4.2;63.6;97420;;;;
2022/04/04 23:57:10;;;;;;;9.6;12.2;;;;;;;4.3;64.1;97420;;;;
